BOX450 EDDF-KJFK
Flight info
| Callsign | BOX450 |
|---|---|
| Flight time | N/A |
| Altitude | 32000 |
| Route | OBOKA5S OBOKA Z29 TORNU DCT VICOT DCT GALSO Q63 KOPUL Q60 OKSAW DCT BIBPE DCT TIGWE DCT ARPAK DCT FELCA DCT NICXI DCT OFSOX DCT SLANY DCT LUPOR DCT MALOT/M084F340 NATD ALLRY/N0483F340 N468A TUSKY DCT PLYMM PARCH4 |
| Aircraft | B77L/H-SDE1E2E3FGHIJ2J3J4J5M1RWXY/LB1D1 |
Departure
| Time | 2026-04-16 13:10 |
|---|---|
| Airport | Frankfurt Main Airport (EDDF) |
Arrival
| Time | N/A |
|---|---|
| Airport | John F. Kennedy International Airport (KJFK) |
| Time | Latitude | Longitude | Altitude | Speed | Heading |
|---|---|---|---|---|---|
| 2026-04-16 12:48 | 50.03700 | 8.52655 | 355 ft | 0 kts | 339° |
| 2026-04-16 12:48 | 50.03706 | 8.52651 | 355 ft | 0 kts | 339° |
| 2026-04-16 13:00 | 50.03691 | 8.52660 | 357 ft | 4 kts | 339° |
| 2026-04-16 13:00 | 50.03665 | 8.52675 | 357 ft | 4 kts | 339° |
| 2026-04-16 13:00 | 50.03640 | 8.52689 | 357 ft | 4 kts | 329° |
| 2026-04-16 13:00 | 50.03623 | 8.52715 | 356 ft | 4 kts | 283° |
| 2026-04-16 13:01 | 50.03623 | 8.52743 | 356 ft | 1 kts | 252° |
| 2026-04-16 13:01 | 50.03618 | 8.52721 | 356 ft | 4 kts | 247° |
| 2026-04-16 13:01 | 50.03611 | 8.52693 | 356 ft | 0 kts | 249° |
| 2026-04-16 13:03 | 50.03607 | 8.52679 | 356 ft | 5 kts | 250° |
| 2026-04-16 13:04 | 50.03597 | 8.52586 | 345 ft | 10 kts | 265° |
| 2026-04-16 13:04 | 50.03589 | 8.52481 | 352 ft | 10 kts | 256° |
| 2026-04-16 13:04 | 50.03568 | 8.52381 | 355 ft | 10 kts | 249° |
| 2026-04-16 13:04 | 50.03521 | 8.52314 | 349 ft | 10 kts | 193° |
| 2026-04-16 13:05 | 50.03453 | 8.52306 | 337 ft | 10 kts | 182° |
| 2026-04-16 13:05 | 50.03400 | 8.52356 | 336 ft | 10 kts | 108° |
| 2026-04-16 13:05 | 50.03398 | 8.52437 | 336 ft | 3 kts | 89° |
| 2026-04-16 13:05 | 50.03398 | 8.52439 | 336 ft | 0 kts | 89° |
| 2026-04-16 13:07 | 50.03398 | 8.52456 | 336 ft | 5 kts | 89° |
| 2026-04-16 13:07 | 50.03398 | 8.52516 | 337 ft | 6 kts | 90° |
| 2026-04-16 13:08 | 50.03385 | 8.52570 | 335 ft | 6 kts | 139° |
| 2026-04-16 13:08 | 50.03348 | 8.52589 | 337 ft | 6 kts | 173° |
| 2026-04-16 13:08 | 50.03310 | 8.52593 | 337 ft | 6 kts | 178° |
| 2026-04-16 13:08 | 50.03223 | 8.52594 | 337 ft | 25 kts | 180° |
| 2026-04-16 13:09 | 50.02843 | 8.52597 | 338 ft | 86 kts | 180° |
| 2026-04-16 13:09 | 50.02043 | 8.52604 | 335 ft | 142 kts | 179° |
| 2026-04-16 13:09 | 50.00895 | 8.52608 | 369 ft | 181 kts | 180° |
| 2026-04-16 13:09 | 49.99613 | 8.52592 | 762 ft | 189 kts | 182° |
| 2026-04-16 13:10 | 49.98277 | 8.52516 | 1252 ft | 190 kts | 195° |
| 2026-04-16 13:10 | 49.97178 | 8.51456 | 1693 ft | 191 kts | 229° |
| 2026-04-16 13:10 | 49.96246 | 8.49933 | 2139 ft | 202 kts | 225° |
| 2026-04-16 13:10 | 49.95169 | 8.48356 | 2370 ft | 225 kts | 224° |
| 2026-04-16 13:11 | 49.93972 | 8.46595 | 2764 ft | 240 kts | 224° |
| 2026-04-16 13:11 | 49.92775 | 8.44833 | 3385 ft | 243 kts | 224° |
| 2026-04-16 13:11 | 49.91529 | 8.42979 | 3804 ft | 252 kts | 224° |
| 2026-04-16 13:11 | 49.90255 | 8.41079 | 4410 ft | 254 kts | 225° |
| 2026-04-16 13:12 | 49.88961 | 8.39148 | 4963 ft | 260 kts | 224° |
| 2026-04-16 13:12 | 49.87738 | 8.37088 | 5554 ft | 261 kts | 240° |
| 2026-04-16 13:12 | 49.87237 | 8.34402 | 6173 ft | 264 kts | 272° |
| 2026-04-16 13:12 | 49.87649 | 8.31646 | 6852 ft | 265 kts | 295° |
| 2026-04-16 13:13 | 49.88591 | 8.29216 | 7446 ft | 268 kts | 302° |
| 2026-04-16 13:13 | 49.89617 | 8.26776 | 8087 ft | 271 kts | 302° |
| 2026-04-16 13:13 | 49.90647 | 8.24319 | 8790 ft | 272 kts | 301° |
| 2026-04-16 13:13 | 49.91683 | 8.21829 | 9450 ft | 276 kts | 301° |
| 2026-04-16 13:14 | 49.92727 | 8.19300 | 10097 ft | 280 kts | 301° |
| 2026-04-16 13:14 | 49.93780 | 8.16751 | 10543 ft | 288 kts | 302° |
| 2026-04-16 13:14 | 49.95111 | 8.14290 | 10675 ft | 308 kts | 315° |
| 2026-04-16 13:14 | 49.96776 | 8.12013 | 10850 ft | 329 kts | 318° |
| 2026-04-16 13:15 | 49.98603 | 8.09676 | 11014 ft | 350 kts | 319° |
| 2026-04-16 13:15 | 50.00502 | 8.07256 | 11367 ft | 362 kts | 319° |
| 2026-04-16 13:15 | 50.02468 | 8.04716 | 11952 ft | 368 kts | 318° |
| 2026-04-16 13:15 | 50.04417 | 8.02162 | 12713 ft | 370 kts | 317° |
| 2026-04-16 13:16 | 50.06383 | 7.99560 | 13571 ft | 370 kts | 317° |
| 2026-04-16 13:16 | 50.08347 | 7.96939 | 14352 ft | 373 kts | 317° |
| 2026-04-16 13:16 | 50.10327 | 7.94282 | 15020 ft | 376 kts | 317° |
| 2026-04-16 13:16 | 50.12320 | 7.91597 | 15740 ft | 380 kts | 317° |
| 2026-04-16 13:17 | 50.14304 | 7.88926 | 16403 ft | 383 kts | 317° |
| 2026-04-16 13:17 | 50.16338 | 7.86181 | 17102 ft | 386 kts | 317° |
| 2026-04-16 13:17 | 50.18382 | 7.83420 | 17771 ft | 389 kts | 316° |
| 2026-04-16 13:17 | 50.20444 | 7.80634 | 18420 ft | 393 kts | 316° |
| 2026-04-16 13:18 | 50.22518 | 7.77827 | 18992 ft | 396 kts | 316° |
| 2026-04-16 13:18 | 50.24579 | 7.75037 | 19557 ft | 398 kts | 317° |
| 2026-04-16 13:18 | 50.26869 | 7.72548 | 20120 ft | 405 kts | 331° |
| 2026-04-16 13:18 | 50.29497 | 7.70883 | 20682 ft | 410 kts | 336° |
| 2026-04-16 13:19 | 50.32143 | 7.69259 | 21244 ft | 411 kts | 334° |
| 2026-04-16 13:19 | 50.34786 | 7.67480 | 21784 ft | 414 kts | 333° |
| 2026-04-16 13:19 | 50.37435 | 7.65644 | 22337 ft | 416 kts | 333° |
| 2026-04-16 13:19 | 50.40106 | 7.63793 | 22911 ft | 419 kts | 333° |
| 2026-04-16 13:20 | 50.42753 | 7.61965 | 23445 ft | 422 kts | 333° |
| 2026-04-16 13:20 | 50.45458 | 7.60103 | 23946 ft | 424 kts | 333° |
| 2026-04-16 13:20 | 50.48167 | 7.58237 | 24382 ft | 427 kts | 333° |
| 2026-04-16 13:20 | 50.50903 | 7.56350 | 24817 ft | 429 kts | 332° |
| 2026-04-16 13:21 | 50.53658 | 7.54447 | 25228 ft | 433 kts | 332° |
| 2026-04-16 13:21 | 50.56376 | 7.52520 | 25617 ft | 433 kts | 329° |
| 2026-04-16 13:21 | 50.59000 | 7.50119 | 26005 ft | 434 kts | 323° |
| 2026-04-16 13:21 | 50.61510 | 7.47439 | 26412 ft | 436 kts | 321° |
| 2026-04-16 13:22 | 50.63976 | 7.44736 | 26865 ft | 437 kts | 322° |
| 2026-04-16 13:22 | 50.66500 | 7.42036 | 27349 ft | 439 kts | 322° |
| 2026-04-16 13:22 | 50.69072 | 7.39365 | 27768 ft | 441 kts | 323° |
| 2026-04-16 13:22 | 50.71626 | 7.36744 | 28156 ft | 444 kts | 323° |
| 2026-04-16 13:23 | 50.74074 | 7.33817 | 28395 ft | 441 kts | 311° |
| 2026-04-16 13:23 | 50.75919 | 7.29980 | 28674 ft | 437 kts | 295° |
| 2026-04-16 13:23 | 50.77227 | 7.25654 | 28979 ft | 437 kts | 294° |
| 2026-04-16 13:23 | 50.78563 | 7.21315 | 29286 ft | 440 kts | 295° |
| 2026-04-16 13:24 | 50.79946 | 7.16986 | 29660 ft | 442 kts | 295° |
| 2026-04-16 13:24 | 50.81332 | 7.12714 | 30005 ft | 443 kts | 295° |
| 2026-04-16 13:24 | 50.82746 | 7.08360 | 30346 ft | 444 kts | 295° |
| 2026-04-16 13:24 | 50.84155 | 7.04008 | 30676 ft | 444 kts | 295° |
| 2026-04-16 13:25 | 50.85552 | 6.99673 | 31106 ft | 441 kts | 295° |
| 2026-04-16 13:25 | 50.86472 | 6.96812 | 31417 ft | 438 kts | 295° |
| 2026-04-16 13:25 | 50.87849 | 6.92528 | 31895 ft | 434 kts | 296° |
| 2026-04-16 13:25 | 50.89218 | 6.88278 | 32240 ft | 433 kts | 296° |
| 2026-04-16 13:26 | 50.91044 | 6.82606 | 32210 ft | 435 kts | 296° |
| 2026-04-16 13:26 | 50.93341 | 6.75454 | 32210 ft | 433 kts | 296° |
| 2026-04-16 13:27 | 50.96044 | 6.67005 | 32208 ft | 431 kts | 296° |
| 2026-04-16 13:27 | 50.98754 | 6.58499 | 32208 ft | 431 kts | 296° |
| 2026-04-16 13:28 | 51.01450 | 6.50010 | 32226 ft | 430 kts | 296° |
| 2026-04-16 13:28 | 51.04122 | 6.41567 | 32227 ft | 430 kts | 296° |
| 2026-04-16 13:29 | 51.06807 | 6.33056 | 32206 ft | 430 kts | 295° |
| 2026-04-16 13:29 | 51.09484 | 6.24539 | 32212 ft | 430 kts | 295° |
| 2026-04-16 13:30 | 51.12144 | 6.16051 | 32220 ft | 430 kts | 295° |
| 2026-04-16 13:30 | 51.14462 | 6.07252 | 32219 ft | 430 kts | 288° |
| 2026-04-16 13:31 | 51.15949 | 5.98026 | 32205 ft | 429 kts | 284° |
| 2026-04-16 13:31 | 51.17417 | 5.88821 | 32220 ft | 429 kts | 285° |
| 2026-04-16 13:32 | 51.18914 | 5.79609 | 32221 ft | 429 kts | 285° |
| 2026-04-16 13:32 | 51.20522 | 5.70463 | 32211 ft | 429 kts | 286° |
| 2026-04-16 13:33 | 51.22137 | 5.61362 | 32207 ft | 427 kts | 286° |
| 2026-04-16 13:33 | 51.23739 | 5.52210 | 32211 ft | 426 kts | 285° |
| 2026-04-16 13:34 | 51.25309 | 5.43150 | 32209 ft | 425 kts | 285° |
| 2026-04-16 13:34 | 51.26882 | 5.34006 | 32219 ft | 425 kts | 285° |
| 2026-04-16 13:35 | 51.28433 | 5.24951 | 32218 ft | 424 kts | 285° |
| 2026-04-16 13:35 | 51.29981 | 5.15858 | 32218 ft | 424 kts | 285° |
| 2026-04-16 13:36 | 51.31521 | 5.06770 | 32213 ft | 424 kts | 285° |
| 2026-04-16 13:36 | 51.33055 | 4.97668 | 32210 ft | 424 kts | 285° |
| 2026-04-16 13:37 | 51.34580 | 4.88571 | 32219 ft | 424 kts | 285° |
| 2026-04-16 13:37 | 51.36097 | 4.79471 | 32203 ft | 425 kts | 285° |
| 2026-04-16 13:38 | 51.37618 | 4.70310 | 32209 ft | 425 kts | 285° |
| 2026-04-16 13:38 | 51.39118 | 4.61216 | 32211 ft | 424 kts | 285° |
| 2026-04-16 13:39 | 51.40619 | 4.52068 | 32213 ft | 423 kts | 285° |
| 2026-04-16 13:39 | 51.42101 | 4.42989 | 32210 ft | 423 kts | 285° |
| 2026-04-16 13:40 | 51.43582 | 4.33866 | 32213 ft | 423 kts | 285° |
| 2026-04-16 13:40 | 51.45056 | 4.24737 | 32215 ft | 422 kts | 285° |
| 2026-04-16 13:41 | 51.46524 | 4.15608 | 32222 ft | 422 kts | 285° |
| 2026-04-16 13:41 | 51.48033 | 4.06558 | 32209 ft | 422 kts | 288° |
| 2026-04-16 13:42 | 51.50273 | 3.97834 | 32221 ft | 422 kts | 294° |
| 2026-04-16 13:42 | 51.52774 | 3.89309 | 32227 ft | 423 kts | 294° |
| 2026-04-16 13:43 | 51.55255 | 3.80723 | 32216 ft | 423 kts | 293° |
| 2026-04-16 13:43 | 51.57724 | 3.72130 | 32219 ft | 422 kts | 293° |
| 2026-04-16 13:44 | 51.60164 | 3.63607 | 32225 ft | 422 kts | 293° |
| 2026-04-16 13:44 | 51.62621 | 3.54998 | 32220 ft | 422 kts | 293° |
| 2026-04-16 13:45 | 51.65051 | 3.46453 | 32225 ft | 421 kts | 293° |
| 2026-04-16 13:45 | 51.67490 | 3.37841 | 32220 ft | 421 kts | 292° |
| 2026-04-16 13:46 | 51.69905 | 3.29291 | 32227 ft | 421 kts | 292° |
| 2026-04-16 13:46 | 51.72001 | 3.20505 | 32234 ft | 418 kts | 282° |
| 2026-04-16 13:47 | 51.72655 | 3.11211 | 32238 ft | 420 kts | 272° |
| 2026-04-16 13:47 | 51.72042 | 3.01806 | 32223 ft | 423 kts | 264° |
| 2026-04-16 13:48 | 51.71171 | 2.92386 | 32228 ft | 424 kts | 264° |
| 2026-04-16 13:48 | 51.70336 | 2.82991 | 32227 ft | 425 kts | 264° |
| 2026-04-16 13:49 | 51.69512 | 2.73605 | 32222 ft | 425 kts | 264° |
| 2026-04-16 13:49 | 51.68674 | 2.64167 | 32211 ft | 425 kts | 264° |
| 2026-04-16 13:50 | 51.67829 | 2.54745 | 32224 ft | 425 kts | 264° |
| 2026-04-16 13:50 | 51.66975 | 2.45376 | 32215 ft | 424 kts | 264° |
| 2026-04-16 13:51 | 51.66091 | 2.35966 | 32219 ft | 424 kts | 263° |
| 2026-04-16 13:51 | 51.65204 | 2.26580 | 32208 ft | 423 kts | 263° |
| 2026-04-16 13:52 | 51.64314 | 2.17205 | 32208 ft | 423 kts | 263° |
| 2026-04-16 13:52 | 51.63429 | 2.07892 | 32203 ft | 422 kts | 264° |
| 2026-04-16 13:53 | 51.62590 | 1.98530 | 32205 ft | 422 kts | 264° |
| 2026-04-16 13:53 | 51.61729 | 1.89145 | 32199 ft | 422 kts | 263° |
| 2026-04-16 13:54 | 51.60859 | 1.79859 | 32197 ft | 422 kts | 263° |
| 2026-04-16 13:54 | 51.59980 | 1.70499 | 32192 ft | 422 kts | 263° |
| 2026-04-16 13:55 | 51.59100 | 1.61199 | 32187 ft | 422 kts | 263° |
| 2026-04-16 13:55 | 51.58170 | 1.51927 | 32187 ft | 422 kts | 263° |
| 2026-04-16 13:56 | 51.57205 | 1.42597 | 32182 ft | 422 kts | 262° |
| 2026-04-16 13:56 | 51.56246 | 1.33321 | 32162 ft | 422 kts | 262° |
| 2026-04-16 13:57 | 51.55284 | 1.24041 | 32171 ft | 422 kts | 262° |
| 2026-04-16 13:57 | 51.54560 | 1.14676 | 32181 ft | 421 kts | 268° |
| 2026-04-16 13:58 | 51.55004 | 1.00607 | 32194 ft | 422 kts | 275° |
| 2026-04-16 13:58 | 51.55623 | 0.91223 | 32169 ft | 423 kts | 275° |
| 2026-04-16 13:59 | 51.56227 | 0.81784 | 32159 ft | 424 kts | 275° |
| 2026-04-16 13:59 | 51.56813 | 0.72373 | 32161 ft | 424 kts | 275° |
| 2026-04-16 14:00 | 51.57389 | 0.62980 | 32177 ft | 424 kts | 275° |
| 2026-04-16 14:00 | 51.57958 | 0.53554 | 32167 ft | 423 kts | 275° |
| 2026-04-16 14:01 | 51.58520 | 0.44136 | 32160 ft | 422 kts | 274° |
| 2026-04-16 14:01 | 51.59072 | 0.34757 | 32158 ft | 422 kts | 274° |
| 2026-04-16 14:02 | 51.59619 | 0.25334 | 32162 ft | 421 kts | 274° |
| 2026-04-16 14:02 | 51.60155 | 0.15962 | 32154 ft | 421 kts | 274° |
| 2026-04-16 14:03 | 51.60682 | 0.06615 | 32153 ft | 421 kts | 274° |
| 2026-04-16 14:03 | 51.61205 | -0.02765 | 32135 ft | 421 kts | 274° |
| 2026-04-16 14:04 | 51.61720 | -0.12147 | 32106 ft | 421 kts | 274° |
| 2026-04-16 14:04 | 51.62282 | -0.21551 | 32103 ft | 422 kts | 274° |
| 2026-04-16 14:05 | 51.62866 | -0.30945 | 32102 ft | 422 kts | 274° |
| 2026-04-16 14:05 | 51.63438 | -0.40350 | 32162 ft | 423 kts | 274° |
| 2026-04-16 14:06 | 51.64002 | -0.49806 | 32158 ft | 423 kts | 274° |
| 2026-04-16 14:06 | 51.64554 | -0.59224 | 32160 ft | 423 kts | 274° |
| 2026-04-16 14:07 | 51.65097 | -0.68623 | 32157 ft | 424 kts | 274° |
| 2026-04-16 14:07 | 51.65636 | -0.78090 | 32152 ft | 424 kts | 274° |
| 2026-04-16 14:08 | 51.66165 | -0.87514 | 32144 ft | 424 kts | 274° |
| 2026-04-16 14:08 | 51.66689 | -0.96991 | 32167 ft | 423 kts | 273° |
| 2026-04-16 14:09 | 51.67204 | -1.06456 | 32156 ft | 424 kts | 273° |
| 2026-04-16 14:09 | 51.67709 | -1.15864 | 32156 ft | 424 kts | 273° |
| 2026-04-16 14:10 | 51.68212 | -1.25368 | 32156 ft | 424 kts | 273° |
| 2026-04-16 14:10 | 51.68702 | -1.34794 | 32134 ft | 424 kts | 273° |
| 2026-04-16 14:11 | 51.69188 | -1.44271 | 32130 ft | 424 kts | 273° |
| 2026-04-16 14:11 | 51.69665 | -1.53732 | 32132 ft | 424 kts | 272° |
| 2026-04-16 14:12 | 51.70134 | -1.63148 | 32132 ft | 424 kts | 272° |
| 2026-04-16 14:12 | 51.70638 | -1.72606 | 32137 ft | 424 kts | 274° |
| 2026-04-16 14:13 | 51.71248 | -1.80505 | 32141 ft | 425 kts | 275° |
| 2026-04-16 14:13 | 51.72058 | -1.91520 | 32139 ft | 425 kts | 274° |
| 2026-04-16 14:14 | 51.72615 | -1.99403 | 32140 ft | 425 kts | 274° |
| 2026-04-16 14:14 | 51.73278 | -2.08885 | 32138 ft | 426 kts | 274° |
| 2026-04-16 14:15 | 51.73936 | -2.18384 | 32134 ft | 426 kts | 274° |
| 2026-04-16 14:15 | 51.74589 | -2.27895 | 32129 ft | 427 kts | 274° |
| 2026-04-16 14:16 | 51.75236 | -2.37435 | 32131 ft | 427 kts | 274° |
| 2026-04-16 14:16 | 51.75870 | -2.46906 | 32142 ft | 426 kts | 273° |
| 2026-04-16 14:17 | 51.76501 | -2.56448 | 32131 ft | 426 kts | 273° |
| 2026-04-16 14:17 | 51.77121 | -2.65937 | 32133 ft | 426 kts | 273° |
| 2026-04-16 14:18 | 51.77735 | -2.75456 | 32154 ft | 426 kts | 273° |
| 2026-04-16 14:18 | 51.78340 | -2.84960 | 32088 ft | 426 kts | 273° |
| 2026-04-16 14:19 | 51.78938 | -2.94468 | 32086 ft | 425 kts | 272° |
| 2026-04-16 14:19 | 51.79527 | -3.03975 | 32078 ft | 424 kts | 272° |
| 2026-04-16 14:20 | 51.80106 | -3.13416 | 32081 ft | 423 kts | 272° |
| 2026-04-16 14:20 | 51.80679 | -3.22896 | 32098 ft | 422 kts | 272° |
| 2026-04-16 14:21 | 51.81231 | -3.32308 | 32107 ft | 422 kts | 272° |
| 2026-04-16 14:21 | 51.81791 | -3.41765 | 32125 ft | 423 kts | 272° |
| 2026-04-16 14:22 | 51.82344 | -3.51194 | 32127 ft | 424 kts | 272° |
| 2026-04-16 14:22 | 51.83347 | -3.60621 | 32129 ft | 427 kts | 278° |
| 2026-04-16 14:23 | 51.84594 | -3.70022 | 32120 ft | 428 kts | 277° |
| 2026-04-16 14:23 | 51.85817 | -3.79457 | 32123 ft | 428 kts | 277° |
| 2026-04-16 14:24 | 51.87023 | -3.88866 | 32120 ft | 428 kts | 277° |
| 2026-04-16 14:24 | 51.88223 | -3.98305 | 32126 ft | 429 kts | 277° |
| 2026-04-16 14:25 | 51.89425 | -4.07811 | 32120 ft | 429 kts | 277° |
| 2026-04-16 14:25 | 51.90611 | -4.17253 | 32113 ft | 429 kts | 277° |
| 2026-04-16 14:26 | 51.91788 | -4.26689 | 32119 ft | 429 kts | 277° |
| 2026-04-16 14:26 | 51.92962 | -4.36167 | 32110 ft | 429 kts | 277° |
| 2026-04-16 14:27 | 51.94131 | -4.45674 | 32115 ft | 429 kts | 276° |
| 2026-04-16 14:27 | 51.95291 | -4.55176 | 32102 ft | 429 kts | 276° |
| 2026-04-16 14:28 | 51.96442 | -4.64665 | 32108 ft | 429 kts | 276° |
| 2026-04-16 14:28 | 51.97578 | -4.74101 | 32106 ft | 428 kts | 276° |
| 2026-04-16 14:29 | 51.98714 | -4.83607 | 32104 ft | 428 kts | 276° |
| 2026-04-16 14:29 | 51.99838 | -4.93075 | 32104 ft | 429 kts | 276° |
| 2026-04-16 14:30 | 52.00961 | -5.02596 | 32093 ft | 429 kts | 276° |
| 2026-04-16 14:30 | 52.02061 | -5.12099 | 32100 ft | 430 kts | 275° |
| 2026-04-16 14:31 | 52.03301 | -5.21655 | 32103 ft | 434 kts | 281° |
| 2026-04-16 14:31 | 52.05211 | -5.30942 | 32096 ft | 436 kts | 283° |
| 2026-04-16 14:32 | 52.07123 | -5.40286 | 32090 ft | 436 kts | 282° |
| 2026-04-16 14:32 | 52.09019 | -5.49683 | 32091 ft | 436 kts | 282° |
| 2026-04-16 14:33 | 52.10906 | -5.59091 | 32083 ft | 436 kts | 282° |
| 2026-04-16 14:33 | 52.12780 | -5.68475 | 32083 ft | 436 kts | 282° |
| 2026-04-16 14:34 | 52.14647 | -5.77859 | 32113 ft | 436 kts | 282° |
| 2026-04-16 14:34 | 52.16316 | -5.87313 | 32069 ft | 432 kts | 276° |
| 2026-04-16 14:35 | 52.17397 | -5.96959 | 32073 ft | 433 kts | 275° |
| 2026-04-16 14:35 | 52.18485 | -6.06589 | 32068 ft | 434 kts | 275° |
| 2026-04-16 14:36 | 52.19587 | -6.16288 | 32061 ft | 435 kts | 275° |
| 2026-04-16 14:36 | 52.20677 | -6.25925 | 32060 ft | 435 kts | 275° |
| 2026-04-16 14:37 | 52.21773 | -6.35677 | 32047 ft | 435 kts | 275° |
| 2026-04-16 14:37 | 52.22853 | -6.45367 | 32058 ft | 436 kts | 275° |
| 2026-04-16 14:38 | 52.23929 | -6.55100 | 32040 ft | 436 kts | 275° |
| 2026-04-16 14:38 | 52.24995 | -6.64825 | 32035 ft | 435 kts | 275° |
| 2026-04-16 14:39 | 52.26054 | -6.74561 | 32027 ft | 435 kts | 275° |
| 2026-04-16 14:39 | 52.27103 | -6.84273 | 32031 ft | 436 kts | 275° |
| 2026-04-16 14:40 | 52.28150 | -6.94055 | 32054 ft | 436 kts | 274° |
| 2026-04-16 14:40 | 52.29184 | -7.03807 | 32027 ft | 438 kts | 274° |
| 2026-04-16 14:41 | 52.30214 | -7.13586 | 32018 ft | 436 kts | 274° |
| 2026-04-16 14:41 | 52.31237 | -7.23372 | 32029 ft | 435 kts | 274° |
| 2026-04-16 14:42 | 52.32241 | -7.33063 | 32020 ft | 434 kts | 274° |
| 2026-04-16 14:42 | 52.33243 | -7.42835 | 32021 ft | 434 kts | 274° |
| 2026-04-16 14:43 | 52.34236 | -7.52595 | 32005 ft | 435 kts | 274° |
| 2026-04-16 14:43 | 52.35222 | -7.62366 | 31986 ft | 436 kts | 274° |
| 2026-04-16 14:44 | 52.36199 | -7.72131 | 31993 ft | 436 kts | 274° |
| 2026-04-16 14:44 | 52.37168 | -7.81897 | 31988 ft | 437 kts | 274° |
| 2026-04-16 14:45 | 52.38129 | -7.91685 | 31988 ft | 437 kts | 274° |
| 2026-04-16 14:45 | 52.39095 | -8.01591 | 31997 ft | 438 kts | 273° |
| 2026-04-16 14:46 | 52.40047 | -8.11461 | 31972 ft | 440 kts | 273° |
| 2026-04-16 14:46 | 52.40994 | -8.21343 | 31965 ft | 439 kts | 273° |
| 2026-04-16 14:47 | 52.41929 | -8.31184 | 31961 ft | 438 kts | 273° |
| 2026-04-16 14:47 | 52.42858 | -8.41081 | 31955 ft | 438 kts | 273° |
| 2026-04-16 14:48 | 52.43772 | -8.50898 | 31966 ft | 438 kts | 272° |
| 2026-04-16 14:48 | 52.44682 | -8.60773 | 31959 ft | 439 kts | 272° |
| 2026-04-16 14:49 | 52.45587 | -8.70705 | 31923 ft | 442 kts | 272° |
| 2026-04-16 14:49 | 52.46488 | -8.80646 | 31932 ft | 440 kts | 272° |
| 2026-04-16 14:50 | 52.47376 | -8.90546 | 31930 ft | 439 kts | 272° |
| 2026-04-16 14:50 | 52.48257 | -9.00473 | 31956 ft | 438 kts | 272° |
| 2026-04-16 14:51 | 52.49122 | -9.10328 | 31938 ft | 439 kts | 272° |
| 2026-04-16 14:51 | 52.49989 | -9.20308 | 31925 ft | 440 kts | 272° |
| 2026-04-16 14:53 | 52.53373 | -9.60190 | 31908 ft | 443 kts | 272° |
| 2026-04-16 14:54 | 52.54203 | -9.70229 | 31904 ft | 444 kts | 272° |
| 2026-04-16 14:54 | 52.55207 | -9.80305 | 31899 ft | 448 kts | 274° |
| 2026-04-16 14:55 | 52.56342 | -9.90325 | 31886 ft | 447 kts | 274° |
| 2026-04-16 14:55 | 52.57465 | -10.00404 | 31878 ft | 445 kts | 274° |
| 2026-04-16 14:56 | 52.58540 | -10.10361 | 31884 ft | 445 kts | 274° |
| 2026-04-16 14:56 | 52.59602 | -10.20400 | 31876 ft | 445 kts | 274° |
| 2026-04-16 14:57 | 52.60651 | -10.30426 | 31871 ft | 446 kts | 274° |
| 2026-04-16 14:57 | 52.61699 | -10.40514 | 31864 ft | 447 kts | 274° |
| 2026-04-16 14:58 | 52.63256 | -10.55655 | 31865 ft | 448 kts | 273° |
| 2026-04-16 14:59 | 52.64287 | -10.65782 | 31859 ft | 449 kts | 273° |
| 2026-04-16 14:59 | 52.65307 | -10.75911 | 31838 ft | 450 kts | 273° |
| 2026-04-16 15:00 | 52.66156 | -10.84398 | 31826 ft | 449 kts | 273° |
| 2026-04-16 15:00 | 52.67328 | -10.96201 | 31831 ft | 447 kts | 273° |
| 2026-04-16 15:01 | 52.68152 | -11.04585 | 31829 ft | 446 kts | 273° |
| 2026-04-16 15:01 | 52.69137 | -11.14706 | 31824 ft | 447 kts | 273° |
| 2026-04-16 15:02 | 52.70113 | -11.24831 | 31820 ft | 447 kts | 273° |
| 2026-04-16 15:02 | 52.71082 | -11.34976 | 31836 ft | 448 kts | 273° |
| 2026-04-16 15:03 | 52.72045 | -11.45143 | 31805 ft | 449 kts | 273° |
| 2026-04-16 15:03 | 52.73000 | -11.55314 | 31789 ft | 450 kts | 273° |
| 2026-04-16 15:04 | 52.73945 | -11.65482 | 31803 ft | 450 kts | 273° |
| 2026-04-16 15:04 | 52.74887 | -11.75727 | 31775 ft | 451 kts | 273° |
| 2026-04-16 15:05 | 52.75818 | -11.85941 | 31769 ft | 451 kts | 273° |
| 2026-04-16 15:05 | 52.76744 | -11.96203 | 31762 ft | 451 kts | 272° |
| 2026-04-16 15:06 | 52.77660 | -12.06466 | 31766 ft | 452 kts | 272° |
| 2026-04-16 15:06 | 52.78567 | -12.16718 | 31768 ft | 452 kts | 272° |
| 2026-04-16 15:07 | 52.79469 | -12.27024 | 31756 ft | 452 kts | 272° |
| 2026-04-16 15:07 | 52.80360 | -12.37309 | 31740 ft | 452 kts | 272° |
| 2026-04-16 15:08 | 52.81241 | -12.47585 | 31723 ft | 452 kts | 272° |
| 2026-04-16 15:08 | 52.82115 | -12.57885 | 31729 ft | 452 kts | 272° |
| 2026-04-16 15:09 | 52.82977 | -12.68155 | 31721 ft | 451 kts | 272° |
| 2026-04-16 15:09 | 52.83831 | -12.78448 | 31724 ft | 453 kts | 272° |
| 2026-04-16 15:10 | 52.84679 | -12.88788 | 31709 ft | 454 kts | 272° |
| 2026-04-16 15:10 | 52.85522 | -12.99166 | 31718 ft | 456 kts | 272° |
| 2026-04-16 15:11 | 52.86356 | -13.09555 | 31688 ft | 458 kts | 272° |
| 2026-04-16 15:11 | 52.87184 | -13.19965 | 31677 ft | 455 kts | 272° |
| 2026-04-16 15:12 | 52.88004 | -13.30383 | 31675 ft | 453 kts | 271° |
| 2026-04-16 15:12 | 52.88802 | -13.40680 | 31689 ft | 455 kts | 271° |
| 2026-04-16 15:13 | 52.89602 | -13.51140 | 31668 ft | 457 kts | 271° |
| 2026-04-16 15:13 | 52.90394 | -13.61586 | 31660 ft | 458 kts | 271° |
| 2026-04-16 15:14 | 52.91176 | -13.72001 | 31660 ft | 457 kts | 271° |
| 2026-04-16 15:14 | 52.91952 | -13.82484 | 31663 ft | 458 kts | 271° |
| 2026-04-16 15:15 | 52.92717 | -13.92944 | 31673 ft | 456 kts | 271° |
| 2026-04-16 15:15 | 52.93467 | -14.03326 | 31668 ft | 456 kts | 271° |
| 2026-04-16 15:16 | 52.94213 | -14.13810 | 31643 ft | 459 kts | 271° |
| 2026-04-16 15:16 | 52.94954 | -14.24337 | 31621 ft | 457 kts | 271° |
| 2026-04-16 15:17 | 52.95681 | -14.34776 | 31649 ft | 455 kts | 270° |
| 2026-04-16 15:17 | 52.96393 | -14.45179 | 31637 ft | 457 kts | 270° |
| 2026-04-16 15:18 | 52.97103 | -14.55680 | 31619 ft | 458 kts | 270° |
| 2026-04-16 15:18 | 52.97807 | -14.66224 | 31620 ft | 460 kts | 270° |
| 2026-04-16 15:19 | 52.98506 | -14.76828 | 31593 ft | 462 kts | 270° |
| 2026-04-16 15:19 | 52.99195 | -14.87394 | 31635 ft | 462 kts | 270° |
| 2026-04-16 15:20 | 52.99998 | -14.98016 | 31586 ft | 467 kts | 275° |
| 2026-04-16 15:20 | 53.01801 | -15.08436 | 31585 ft | 475 kts | 284° |
| 2026-04-16 15:21 | 53.04149 | -15.18699 | 31595 ft | 476 kts | 285° |
| 2026-04-16 15:21 | 53.06482 | -15.28961 | 31568 ft | 476 kts | 284° |
| 2026-04-16 15:22 | 53.08796 | -15.39302 | 31582 ft | 477 kts | 284° |
| 2026-04-16 15:22 | 53.11084 | -15.49640 | 31579 ft | 477 kts | 284° |
| 2026-04-16 15:23 | 53.13368 | -15.60024 | 31567 ft | 477 kts | 284° |
| 2026-04-16 15:23 | 53.15632 | -15.70360 | 31570 ft | 477 kts | 284° |
| 2026-04-16 15:24 | 53.17902 | -15.80776 | 31565 ft | 478 kts | 284° |
| 2026-04-16 15:24 | 53.20164 | -15.91208 | 31563 ft | 478 kts | 284° |
| 2026-04-16 15:25 | 53.22404 | -16.01588 | 31545 ft | 477 kts | 284° |
| 2026-04-16 15:25 | 53.24642 | -16.12011 | 31550 ft | 477 kts | 284° |
| 2026-04-16 15:26 | 53.26875 | -16.22469 | 31547 ft | 476 kts | 284° |
| 2026-04-16 15:26 | 53.29079 | -16.32844 | 31538 ft | 476 kts | 284° |
| 2026-04-16 15:27 | 53.31288 | -16.43291 | 31524 ft | 476 kts | 284° |
| 2026-04-16 15:27 | 53.33487 | -16.53752 | 31526 ft | 476 kts | 284° |
| 2026-04-16 15:28 | 53.35667 | -16.64170 | 31540 ft | 476 kts | 284° |
| 2026-04-16 15:28 | 53.37850 | -16.74661 | 31525 ft | 478 kts | 284° |
| 2026-04-16 15:29 | 53.40037 | -16.85225 | 31524 ft | 478 kts | 284° |
| 2026-04-16 15:29 | 53.42197 | -16.95715 | 31513 ft | 479 kts | 284° |
| 2026-04-16 15:30 | 53.44388 | -17.06427 | 31517 ft | 488 kts | 284° |
| 2026-04-16 15:30 | 53.46592 | -17.17256 | 31513 ft | 495 kts | 284° |
| 2026-04-16 15:31 | 53.48821 | -17.28247 | 31506 ft | 497 kts | 284° |
| 2026-04-16 15:31 | 53.51031 | -17.39207 | 31504 ft | 499 kts | 284° |
| 2026-04-16 15:32 | 53.53252 | -17.50287 | 31497 ft | 499 kts | 284° |
| 2026-04-16 15:32 | 53.55452 | -17.61330 | 31494 ft | 500 kts | 284° |
| 2026-04-16 15:33 | 53.57654 | -17.72442 | 31483 ft | 499 kts | 284° |
| 2026-04-16 15:33 | 53.59841 | -17.83547 | 31486 ft | 499 kts | 284° |
| 2026-04-16 15:34 | 53.62008 | -17.94615 | 31495 ft | 499 kts | 284° |
| 2026-04-16 15:34 | 53.64177 | -18.05756 | 31495 ft | 500 kts | 284° |
| 2026-04-16 15:35 | 53.66324 | -18.16846 | 31472 ft | 500 kts | 284° |
| 2026-04-16 15:35 | 53.68476 | -18.28027 | 31463 ft | 500 kts | 284° |
| 2026-04-16 15:36 | 53.70618 | -18.39223 | 31469 ft | 500 kts | 284° |
| 2026-04-16 15:36 | 53.72729 | -18.50319 | 31463 ft | 500 kts | 283° |
| 2026-04-16 15:37 | 53.74853 | -18.61557 | 31475 ft | 500 kts | 283° |
| 2026-04-16 15:37 | 53.76960 | -18.72767 | 31461 ft | 501 kts | 283° |
| 2026-04-16 15:38 | 53.79048 | -18.83944 | 31467 ft | 501 kts | 283° |
| 2026-04-16 15:38 | 53.81144 | -18.95225 | 31457 ft | 501 kts | 283° |
| 2026-04-16 15:39 | 53.83212 | -19.06427 | 31457 ft | 501 kts | 283° |
| 2026-04-16 15:39 | 53.85286 | -19.17733 | 31458 ft | 501 kts | 283° |
| 2026-04-16 15:40 | 53.87345 | -19.29027 | 31477 ft | 502 kts | 283° |
| 2026-04-16 15:40 | 53.89386 | -19.40285 | 31479 ft | 502 kts | 283° |
| 2026-04-16 15:41 | 53.91430 | -19.51629 | 31473 ft | 502 kts | 283° |
| 2026-04-16 15:41 | 53.93461 | -19.62976 | 31474 ft | 502 kts | 283° |
| 2026-04-16 15:42 | 53.95468 | -19.74258 | 31499 ft | 501 kts | 283° |
| 2026-04-16 15:42 | 53.97474 | -19.85602 | 31500 ft | 501 kts | 283° |
| 2026-04-16 15:43 | 53.99437 | -19.96991 | 31490 ft | 501 kts | 280° |
| 2026-04-16 15:43 | 54.00461 | -20.08562 | 31497 ft | 495 kts | 270° |
| 2026-04-16 15:44 | 54.00870 | -20.20259 | 31505 ft | 495 kts | 270° |
| 2026-04-16 15:44 | 54.01287 | -20.31971 | 31505 ft | 496 kts | 270° |
| 2026-04-16 15:45 | 54.01724 | -20.43687 | 31529 ft | 496 kts | 270° |
| 2026-04-16 15:45 | 54.02162 | -20.55359 | 31524 ft | 497 kts | 270° |
| 2026-04-16 15:46 | 54.02595 | -20.67146 | 31512 ft | 497 kts | 270° |
| 2026-04-16 15:46 | 54.03012 | -20.78836 | 31515 ft | 497 kts | 270° |
| 2026-04-16 15:47 | 54.03417 | -20.90581 | 31524 ft | 497 kts | 270° |
| 2026-04-16 15:47 | 54.03811 | -21.02326 | 31538 ft | 497 kts | 270° |
| 2026-04-16 15:48 | 54.04194 | -21.14094 | 31532 ft | 498 kts | 270° |
| 2026-04-16 15:48 | 54.04505 | -21.23917 | 31522 ft | 499 kts | 270° |
| 2026-04-16 15:49 | 54.04925 | -21.37616 | 31538 ft | 500 kts | 270° |
| 2026-04-16 15:49 | 54.05218 | -21.47504 | 31879 ft | 500 kts | 270° |
| 2026-04-16 15:49 | 54.05390 | -21.53412 | 32206 ft | 498 kts | 270° |
| 2026-04-16 15:50 | 54.05560 | -21.59317 | 32539 ft | 496 kts | 270° |
| 2026-04-16 15:50 | 54.05725 | -21.65198 | 32778 ft | 497 kts | 270° |
| 2026-04-16 15:50 | 54.05885 | -21.71020 | 33000 ft | 497 kts | 270° |
| 2026-04-16 15:50 | 54.06043 | -21.76872 | 33250 ft | 496 kts | 270° |
| 2026-04-16 15:51 | 54.06199 | -21.82713 | 33464 ft | 495 kts | 270° |
| 2026-04-16 15:51 | 54.06503 | -21.94452 | 33536 ft | 492 kts | 270° |
| 2026-04-16 15:52 | 54.06792 | -22.06080 | 33539 ft | 491 kts | 270° |
| 2026-04-16 15:52 | 54.07067 | -22.17600 | 33544 ft | 490 kts | 269° |
| 2026-04-16 15:53 | 54.07334 | -22.29242 | 33542 ft | 490 kts | 269° |
| 2026-04-16 15:53 | 54.07589 | -22.40829 | 33545 ft | 489 kts | 269° |
| 2026-04-16 15:54 | 54.07831 | -22.52326 | 33547 ft | 490 kts | 269° |
| 2026-04-16 15:54 | 54.08064 | -22.63974 | 33547 ft | 490 kts | 269° |
| 2026-04-16 15:55 | 54.08286 | -22.75587 | 33562 ft | 491 kts | 269° |
| 2026-04-16 15:55 | 54.08497 | -22.87216 | 33551 ft | 492 kts | 269° |
| 2026-04-16 15:56 | 54.08697 | -22.98883 | 33563 ft | 493 kts | 269° |
| 2026-04-16 15:56 | 54.08887 | -23.10588 | 33555 ft | 494 kts | 269° |
| 2026-04-16 15:57 | 54.09064 | -23.22219 | 33553 ft | 494 kts | 269° |
| 2026-04-16 15:57 | 54.09232 | -23.33944 | 33560 ft | 494 kts | 269° |
| 2026-04-16 15:58 | 54.09386 | -23.45586 | 33554 ft | 493 kts | 269° |
| 2026-04-16 15:58 | 54.09530 | -23.57246 | 33553 ft | 492 kts | 269° |
| 2026-04-16 15:59 | 54.09724 | -23.74679 | 33555 ft | 491 kts | 269° |
| 2026-04-16 15:59 | 54.09839 | -23.86311 | 33555 ft | 490 kts | 269° |
| 2026-04-16 16:00 | 54.09943 | -23.97919 | 33560 ft | 490 kts | 269° |
| 2026-04-16 16:00 | 54.10036 | -24.09570 | 33562 ft | 490 kts | 269° |
| 2026-04-16 16:01 | 54.10118 | -24.21183 | 33560 ft | 490 kts | 269° |
| 2026-04-16 16:01 | 54.10188 | -24.32734 | 33565 ft | 490 kts | 269° |
| 2026-04-16 16:02 | 54.10247 | -24.44317 | 33566 ft | 490 kts | 268° |
| 2026-04-16 16:02 | 54.10294 | -24.55924 | 33573 ft | 490 kts | 269° |
| 2026-04-16 16:03 | 54.10332 | -24.67511 | 33569 ft | 490 kts | 269° |
| 2026-04-16 16:03 | 54.10357 | -24.79104 | 33566 ft | 489 kts | 268° |
| 2026-04-16 16:04 | 54.10372 | -24.90730 | 33573 ft | 489 kts | 268° |
| 2026-04-16 16:04 | 54.10375 | -25.02298 | 33575 ft | 489 kts | 268° |
| 2026-04-16 16:05 | 54.10367 | -25.13913 | 33592 ft | 489 kts | 269° |
| 2026-04-16 16:05 | 54.10349 | -25.25447 | 33581 ft | 488 kts | 268° |
| 2026-04-16 16:06 | 54.10319 | -25.36977 | 33591 ft | 487 kts | 268° |
| 2026-04-16 16:06 | 54.10279 | -25.48493 | 33597 ft | 487 kts | 268° |
| 2026-04-16 16:07 | 54.10227 | -25.60060 | 33596 ft | 486 kts | 268° |
| 2026-04-16 16:07 | 54.10164 | -25.71551 | 33617 ft | 483 kts | 268° |
| 2026-04-16 16:08 | 54.10091 | -25.82913 | 33603 ft | 480 kts | 268° |
| 2026-04-16 16:08 | 54.10009 | -25.94285 | 33613 ft | 480 kts | 268° |
| 2026-04-16 16:09 | 54.09914 | -26.05693 | 33622 ft | 481 kts | 267° |
| 2026-04-16 16:09 | 54.09809 | -26.16994 | 33629 ft | 480 kts | 268° |
| 2026-04-16 16:10 | 54.09693 | -26.28374 | 33636 ft | 481 kts | 268° |
| 2026-04-16 16:10 | 54.09567 | -26.39721 | 33636 ft | 479 kts | 268° |
| 2026-04-16 16:11 | 54.09429 | -26.51108 | 33651 ft | 479 kts | 267° |
| 2026-04-16 16:11 | 54.09282 | -26.62421 | 33646 ft | 479 kts | 267° |
| 2026-04-16 16:12 | 54.09124 | -26.73820 | 33660 ft | 479 kts | 268° |
| 2026-04-16 16:12 | 54.08956 | -26.85084 | 33668 ft | 479 kts | 266° |
| 2026-04-16 16:13 | 54.08775 | -26.96476 | 33673 ft | 479 kts | 267° |
| 2026-04-16 16:13 | 54.08586 | -27.07795 | 33679 ft | 478 kts | 267° |
| 2026-04-16 16:14 | 54.08387 | -27.19102 | 33690 ft | 478 kts | 266° |
| 2026-04-16 16:14 | 54.08175 | -27.30410 | 33685 ft | 478 kts | 267° |
| 2026-04-16 16:15 | 54.07955 | -27.41682 | 33710 ft | 478 kts | 266° |
| 2026-04-16 16:15 | 54.07722 | -27.53020 | 33702 ft | 477 kts | 266° |
| 2026-04-16 16:16 | 54.07481 | -27.64288 | 33709 ft | 476 kts | 266° |
| 2026-04-16 16:16 | 54.07227 | -27.75592 | 33697 ft | 477 kts | 266° |
| 2026-04-16 16:17 | 54.06966 | -27.86821 | 33712 ft | 477 kts | 266° |
| 2026-04-16 16:17 | 54.06692 | -27.98122 | 33714 ft | 478 kts | 266° |
| 2026-04-16 16:18 | 54.06406 | -28.09423 | 33726 ft | 478 kts | 265° |
| 2026-04-16 16:18 | 54.06111 | -28.20704 | 33731 ft | 478 kts | 266° |
| 2026-04-16 16:19 | 54.05805 | -28.31988 | 33730 ft | 478 kts | 265° |
| 2026-04-16 16:19 | 54.05487 | -28.43357 | 33739 ft | 479 kts | 265° |
| 2026-04-16 16:20 | 54.05159 | -28.54659 | 33742 ft | 479 kts | 265° |
| 2026-04-16 16:20 | 54.04822 | -28.65944 | 33757 ft | 479 kts | 265° |
| 2026-04-16 16:21 | 54.04470 | -28.77323 | 33751 ft | 480 kts | 265° |
| 2026-04-16 16:21 | 54.04110 | -28.88670 | 33766 ft | 479 kts | 265° |
| 2026-04-16 16:22 | 54.03739 | -28.99974 | 33760 ft | 480 kts | 265° |
| 2026-04-16 16:22 | 54.03358 | -29.11276 | 33776 ft | 480 kts | 265° |
| 2026-04-16 16:23 | 54.02965 | -29.22623 | 33778 ft | 479 kts | 265° |
| 2026-04-16 16:23 | 54.02564 | -29.33897 | 33783 ft | 479 kts | 265° |
| 2026-04-16 16:24 | 54.02152 | -29.45188 | 33783 ft | 479 kts | 265° |
| 2026-04-16 16:24 | 54.01729 | -29.56483 | 33799 ft | 479 kts | 265° |
| 2026-04-16 16:25 | 54.01292 | -29.67853 | 33798 ft | 479 kts | 265° |
| 2026-04-16 16:25 | 54.00848 | -29.79121 | 33810 ft | 479 kts | 265° |
| 2026-04-16 16:26 | 54.00393 | -29.90449 | 33802 ft | 479 kts | 265° |
| 2026-04-16 16:26 | 53.99924 | -30.01736 | 33822 ft | 479 kts | 264° |
| 2026-04-16 16:27 | 53.99312 | -30.12977 | 33816 ft | 479 kts | 263° |
| 2026-04-16 16:27 | 53.98625 | -30.24244 | 33823 ft | 479 kts | 263° |
| 2026-04-16 16:28 | 53.97942 | -30.35438 | 33827 ft | 479 kts | 263° |
| 2026-04-16 16:28 | 53.97260 | -30.46703 | 33832 ft | 478 kts | 263° |
| 2026-04-16 16:29 | 53.96574 | -30.57968 | 33849 ft | 479 kts | 263° |
| 2026-04-16 16:29 | 53.95882 | -30.69154 | 33848 ft | 479 kts | 263° |
| 2026-04-16 16:30 | 53.95174 | -30.80422 | 33854 ft | 479 kts | 263° |
| 2026-04-16 16:30 | 53.94456 | -30.91659 | 33862 ft | 479 kts | 263° |
| 2026-04-16 16:31 | 53.93727 | -31.02901 | 33849 ft | 478 kts | 263° |
| 2026-04-16 16:31 | 53.92992 | -31.14087 | 33864 ft | 478 kts | 263° |
| 2026-04-16 16:32 | 53.92244 | -31.25290 | 33863 ft | 478 kts | 263° |
| 2026-04-16 16:32 | 53.91490 | -31.36446 | 33872 ft | 478 kts | 263° |
| 2026-04-16 16:33 | 53.90720 | -31.47658 | 33872 ft | 477 kts | 263° |
| 2026-04-16 16:33 | 53.89946 | -31.58778 | 33890 ft | 477 kts | 263° |
| 2026-04-16 16:34 | 53.89155 | -31.69993 | 33883 ft | 477 kts | 263° |
| 2026-04-16 16:34 | 53.88356 | -31.81167 | 33889 ft | 477 kts | 263° |
| 2026-04-16 16:35 | 53.87551 | -31.92284 | 33900 ft | 478 kts | 263° |
| 2026-04-16 16:35 | 53.86729 | -32.03486 | 33901 ft | 477 kts | 263° |
| 2026-04-16 16:36 | 53.85905 | -32.14558 | 33901 ft | 476 kts | 263° |
| 2026-04-16 16:36 | 53.85067 | -32.25691 | 33910 ft | 475 kts | 263° |
| 2026-04-16 16:37 | 53.84221 | -32.36794 | 33907 ft | 474 kts | 263° |
| 2026-04-16 16:37 | 53.83370 | -32.47809 | 33916 ft | 474 kts | 263° |
| 2026-04-16 16:38 | 53.82505 | -32.58871 | 33913 ft | 473 kts | 263° |
| 2026-04-16 16:38 | 53.81779 | -32.68057 | 33913 ft | 472 kts | 263° |
| 2026-04-16 16:39 | 53.80755 | -32.80869 | 33918 ft | 471 kts | 262° |
| 2026-04-16 16:39 | 53.80009 | -32.90082 | 33928 ft | 471 kts | 262° |
| 2026-04-16 16:40 | 53.79117 | -33.00991 | 33912 ft | 471 kts | 262° |
| 2026-04-16 16:40 | 53.78207 | -33.11991 | 33927 ft | 471 kts | 262° |
| 2026-04-16 16:41 | 53.77293 | -33.22906 | 33928 ft | 469 kts | 262° |
| 2026-04-16 16:41 | 53.76375 | -33.33756 | 33923 ft | 467 kts | 262° |
| 2026-04-16 16:42 | 53.75445 | -33.44626 | 33925 ft | 466 kts | 262° |
| 2026-04-16 16:42 | 53.74512 | -33.55413 | 33937 ft | 465 kts | 262° |
| 2026-04-16 16:43 | 53.73565 | -33.66236 | 33936 ft | 465 kts | 262° |
| 2026-04-16 16:43 | 53.72608 | -33.77061 | 33935 ft | 465 kts | 262° |
| 2026-04-16 16:44 | 53.71648 | -33.87812 | 33938 ft | 466 kts | 262° |
| 2026-04-16 16:44 | 53.70671 | -33.98637 | 33938 ft | 466 kts | 262° |
| 2026-04-16 16:45 | 53.69682 | -34.09479 | 33942 ft | 466 kts | 262° |
| 2026-04-16 16:45 | 53.68690 | -34.20244 | 33942 ft | 467 kts | 262° |
| 2026-04-16 16:46 | 53.67681 | -34.31075 | 33949 ft | 466 kts | 262° |
| 2026-04-16 16:46 | 53.66665 | -34.41879 | 33946 ft | 465 kts | 262° |
| 2026-04-16 16:47 | 53.65645 | -34.52615 | 33961 ft | 465 kts | 261° |
| 2026-04-16 16:47 | 53.64611 | -34.63391 | 33956 ft | 464 kts | 261° |
| 2026-04-16 16:48 | 53.63576 | -34.74075 | 33954 ft | 464 kts | 261° |
| 2026-04-16 16:48 | 53.62526 | -34.84808 | 33947 ft | 463 kts | 261° |
| 2026-04-16 16:49 | 53.61473 | -34.95471 | 33955 ft | 463 kts | 261° |
| 2026-04-16 16:49 | 53.60407 | -35.06168 | 33960 ft | 462 kts | 261° |
| 2026-04-16 16:50 | 53.59332 | -35.16848 | 33968 ft | 462 kts | 261° |
| 2026-04-16 16:50 | 53.58254 | -35.27461 | 33961 ft | 462 kts | 261° |
| 2026-04-16 16:51 | 53.57158 | -35.38154 | 33959 ft | 462 kts | 261° |
| 2026-04-16 16:51 | 53.56062 | -35.48749 | 33966 ft | 461 kts | 261° |
| 2026-04-16 16:52 | 53.54948 | -35.59415 | 33972 ft | 461 kts | 261° |
| 2026-04-16 16:52 | 53.53833 | -35.70003 | 33984 ft | 460 kts | 261° |
| 2026-04-16 16:53 | 53.52704 | -35.80630 | 33986 ft | 460 kts | 261° |
| 2026-04-16 16:53 | 53.51571 | -35.91190 | 33957 ft | 460 kts | 261° |
| 2026-04-16 16:54 | 53.50432 | -36.01723 | 33969 ft | 458 kts | 261° |
| 2026-04-16 16:54 | 53.49283 | -36.12252 | 33974 ft | 457 kts | 261° |
| 2026-04-16 16:55 | 53.48127 | -36.22759 | 33977 ft | 457 kts | 261° |
| 2026-04-16 16:55 | 53.46966 | -36.33219 | 33977 ft | 457 kts | 261° |
| 2026-04-16 16:56 | 53.45800 | -36.43642 | 33959 ft | 457 kts | 261° |
| 2026-04-16 16:56 | 53.44618 | -36.54115 | 33975 ft | 455 kts | 261° |
| 2026-04-16 16:57 | 53.42835 | -36.69753 | 33981 ft | 454 kts | 261° |
| 2026-04-16 16:58 | 53.41639 | -36.80138 | 33978 ft | 454 kts | 261° |
| 2026-04-16 16:58 | 53.40433 | -36.90527 | 33982 ft | 454 kts | 261° |
| 2026-04-16 16:59 | 53.39218 | -37.00905 | 33994 ft | 453 kts | 261° |
| 2026-04-16 16:59 | 53.37998 | -37.11244 | 33984 ft | 452 kts | 261° |
| 2026-04-16 17:00 | 53.36772 | -37.21554 | 33978 ft | 451 kts | 261° |
| 2026-04-16 17:00 | 53.35546 | -37.31791 | 33990 ft | 450 kts | 261° |
| 2026-04-16 17:01 | 53.34304 | -37.42077 | 33993 ft | 450 kts | 261° |
| 2026-04-16 17:01 | 53.33060 | -37.52297 | 33970 ft | 449 kts | 261° |
| 2026-04-16 17:02 | 53.31805 | -37.62529 | 33980 ft | 448 kts | 261° |
| 2026-04-16 17:02 | 53.30551 | -37.72683 | 33992 ft | 446 kts | 261° |
| 2026-04-16 17:03 | 53.29287 | -37.82836 | 33994 ft | 446 kts | 261° |
| 2026-04-16 17:03 | 53.28013 | -37.93003 | 33990 ft | 446 kts | 261° |
| 2026-04-16 17:04 | 53.26736 | -38.03109 | 33989 ft | 446 kts | 261° |
| 2026-04-16 17:04 | 53.25449 | -38.13221 | 33992 ft | 444 kts | 261° |
| 2026-04-16 17:05 | 53.24154 | -38.23326 | 33992 ft | 443 kts | 261° |
| 2026-04-16 17:05 | 53.22860 | -38.33356 | 33991 ft | 443 kts | 261° |
| 2026-04-16 17:06 | 53.21562 | -38.43348 | 33990 ft | 443 kts | 261° |
| 2026-04-16 17:06 | 53.20246 | -38.53397 | 33991 ft | 444 kts | 261° |
| 2026-04-16 17:07 | 53.18920 | -38.63456 | 33982 ft | 444 kts | 261° |
| 2026-04-16 17:07 | 53.17581 | -38.73544 | 33991 ft | 444 kts | 261° |
| 2026-04-16 17:08 | 53.16241 | -38.83568 | 33994 ft | 444 kts | 261° |
| 2026-04-16 17:08 | 53.14893 | -38.93580 | 33994 ft | 444 kts | 261° |
| 2026-04-16 17:09 | 53.13539 | -39.03573 | 33995 ft | 444 kts | 261° |
| 2026-04-16 17:09 | 53.12166 | -39.13640 | 33991 ft | 444 kts | 261° |
| 2026-04-16 17:10 | 53.10793 | -39.23629 | 33991 ft | 443 kts | 260° |
| 2026-04-16 17:10 | 53.09413 | -39.33611 | 33990 ft | 443 kts | 260° |
| 2026-04-16 17:11 | 53.08019 | -39.43623 | 33990 ft | 443 kts | 260° |
| 2026-04-16 17:11 | 53.06622 | -39.53588 | 34005 ft | 444 kts | 260° |
| 2026-04-16 17:12 | 53.05210 | -39.63605 | 33993 ft | 444 kts | 260° |
| 2026-04-16 17:12 | 53.03800 | -39.73529 | 33989 ft | 442 kts | 261° |
| 2026-04-16 17:13 | 53.02384 | -39.83443 | 33996 ft | 441 kts | 261° |
| 2026-04-16 17:13 | 53.00962 | -39.93345 | 33997 ft | 440 kts | 261° |
| 2026-04-16 17:14 | 52.99528 | -40.03213 | 33995 ft | 439 kts | 260° |
| 2026-04-16 17:14 | 52.98041 | -40.13064 | 34001 ft | 439 kts | 260° |
| 2026-04-16 17:15 | 52.96542 | -40.22861 | 33995 ft | 438 kts | 260° |
| 2026-04-16 17:15 | 52.95048 | -40.32603 | 33999 ft | 438 kts | 260° |
| 2026-04-16 17:16 | 52.93539 | -40.42417 | 34005 ft | 438 kts | 260° |
| 2026-04-16 17:16 | 52.92024 | -40.52219 | 34003 ft | 438 kts | 260° |
| 2026-04-16 17:17 | 52.90515 | -40.61919 | 34005 ft | 438 kts | 260° |
| 2026-04-16 17:17 | 52.88981 | -40.71727 | 33971 ft | 439 kts | 260° |
| 2026-04-16 17:18 | 52.87441 | -40.81510 | 34001 ft | 440 kts | 260° |
| 2026-04-16 17:18 | 52.85891 | -40.91302 | 34011 ft | 441 kts | 260° |
| 2026-04-16 17:19 | 52.84327 | -41.01121 | 34007 ft | 442 kts | 260° |
| 2026-04-16 17:19 | 52.82760 | -41.10897 | 34009 ft | 442 kts | 259° |
| 2026-04-16 17:20 | 52.81179 | -41.20706 | 34013 ft | 443 kts | 259° |
| 2026-04-16 17:20 | 52.79581 | -41.30562 | 34002 ft | 443 kts | 260° |
| 2026-04-16 17:21 | 52.77984 | -41.40357 | 34014 ft | 443 kts | 260° |
| 2026-04-16 17:21 | 52.76374 | -41.50177 | 34019 ft | 444 kts | 260° |
| 2026-04-16 17:22 | 52.74752 | -41.60012 | 34016 ft | 445 kts | 260° |
| 2026-04-16 17:22 | 52.73114 | -41.69881 | 34022 ft | 445 kts | 259° |
| 2026-04-16 17:23 | 52.71466 | -41.79752 | 34019 ft | 445 kts | 260° |
| 2026-04-16 17:23 | 52.69822 | -41.89553 | 34020 ft | 446 kts | 260° |
| 2026-04-16 17:24 | 52.68159 | -41.99412 | 34044 ft | 446 kts | 260° |
| 2026-04-16 17:24 | 52.66486 | -42.09265 | 34017 ft | 446 kts | 260° |
| 2026-04-16 17:25 | 52.64808 | -42.19094 | 34021 ft | 445 kts | 260° |
| 2026-04-16 17:25 | 52.63133 | -42.28850 | 34004 ft | 444 kts | 260° |
| 2026-04-16 17:26 | 52.61452 | -42.38593 | 34019 ft | 444 kts | 260° |
| 2026-04-16 17:26 | 52.59757 | -42.48367 | 34026 ft | 444 kts | 260° |
| 2026-04-16 17:27 | 52.58054 | -42.58126 | 34030 ft | 444 kts | 260° |
| 2026-04-16 17:27 | 52.56344 | -42.67871 | 34030 ft | 444 kts | 260° |
| 2026-04-16 17:28 | 52.54626 | -42.77611 | 33998 ft | 445 kts | 260° |
| 2026-04-16 17:28 | 52.52895 | -42.87365 | 34023 ft | 444 kts | 260° |
| 2026-04-16 17:29 | 52.51443 | -42.95507 | 34028 ft | 444 kts | 260° |
| 2026-04-16 17:29 | 52.49704 | -43.05216 | 34033 ft | 445 kts | 259° |
| 2026-04-16 17:30 | 52.47941 | -43.15007 | 34035 ft | 445 kts | 259° |
| 2026-04-16 17:30 | 52.46182 | -43.24719 | 34041 ft | 445 kts | 259° |
| 2026-04-16 17:31 | 52.44418 | -43.34403 | 34026 ft | 443 kts | 259° |
| 2026-04-16 17:31 | 52.42649 | -43.44070 | 34033 ft | 442 kts | 259° |
| 2026-04-16 17:32 | 52.40888 | -43.53645 | 34035 ft | 441 kts | 259° |
| 2026-04-16 17:32 | 52.39111 | -43.63257 | 34038 ft | 441 kts | 259° |
| 2026-04-16 17:33 | 52.37323 | -43.72878 | 34033 ft | 441 kts | 259° |
| 2026-04-16 17:33 | 52.35521 | -43.82523 | 34029 ft | 441 kts | 259° |
| 2026-04-16 17:34 | 52.33726 | -43.92084 | 34028 ft | 441 kts | 259° |
| 2026-04-16 17:34 | 52.31919 | -44.01655 | 34037 ft | 442 kts | 259° |
| 2026-04-16 17:35 | 52.30104 | -44.11221 | 34036 ft | 442 kts | 259° |
| 2026-04-16 17:35 | 52.28264 | -44.20869 | 34033 ft | 443 kts | 259° |
| 2026-04-16 17:36 | 52.26435 | -44.30411 | 34033 ft | 443 kts | 259° |
| 2026-04-16 17:36 | 52.24588 | -44.40000 | 34049 ft | 443 kts | 259° |
| 2026-04-16 17:37 | 52.22724 | -44.49625 | 34031 ft | 442 kts | 259° |
| 2026-04-16 17:37 | 52.20873 | -44.59134 | 34036 ft | 440 kts | 259° |
| 2026-04-16 17:38 | 52.19019 | -44.68614 | 34033 ft | 439 kts | 259° |
| 2026-04-16 17:38 | 52.17154 | -44.78106 | 33990 ft | 438 kts | 259° |
| 2026-04-16 17:39 | 52.15291 | -44.87541 | 34022 ft | 437 kts | 259° |
| 2026-04-16 17:39 | 52.13429 | -44.96926 | 34040 ft | 437 kts | 259° |
| 2026-04-16 17:40 | 52.11546 | -45.06374 | 34039 ft | 438 kts | 259° |
| 2026-04-16 17:40 | 52.09667 | -45.15757 | 34036 ft | 439 kts | 259° |
| 2026-04-16 17:41 | 52.07765 | -45.25204 | 34036 ft | 440 kts | 259° |
| 2026-04-16 17:41 | 52.05852 | -45.34655 | 34027 ft | 439 kts | 259° |
| 2026-04-16 17:42 | 52.03934 | -45.44094 | 34038 ft | 439 kts | 258° |
| 2026-04-16 17:42 | 52.02012 | -45.53502 | 34038 ft | 439 kts | 258° |
| 2026-04-16 17:43 | 52.00086 | -45.62886 | 34040 ft | 439 kts | 258° |
| 2026-04-16 17:43 | 51.98164 | -45.72202 | 34033 ft | 437 kts | 258° |
| 2026-04-16 17:44 | 51.96227 | -45.81551 | 34032 ft | 435 kts | 258° |
| 2026-04-16 17:44 | 51.94292 | -45.90851 | 34038 ft | 434 kts | 258° |
| 2026-04-16 17:45 | 51.92365 | -46.00067 | 34044 ft | 434 kts | 258° |
| 2026-04-16 17:45 | 51.90422 | -46.09319 | 34041 ft | 434 kts | 258° |
| 2026-04-16 17:46 | 51.88460 | -46.18619 | 34043 ft | 435 kts | 258° |
| 2026-04-16 17:46 | 51.86515 | -46.27797 | 34045 ft | 434 kts | 258° |
| 2026-04-16 17:47 | 51.84541 | -46.37068 | 34048 ft | 435 kts | 258° |
| 2026-04-16 17:47 | 51.82558 | -46.46338 | 34049 ft | 436 kts | 257° |
| 2026-04-16 17:48 | 51.80569 | -46.55591 | 34043 ft | 436 kts | 257° |
| 2026-04-16 17:48 | 51.78574 | -46.64835 | 34046 ft | 437 kts | 257° |
| 2026-04-16 17:49 | 51.76567 | -46.74089 | 34029 ft | 437 kts | 257° |
| 2026-04-16 17:49 | 51.74550 | -46.83347 | 34043 ft | 437 kts | 257° |
| 2026-04-16 17:50 | 51.72535 | -46.92557 | 34056 ft | 437 kts | 257° |
| 2026-04-16 17:50 | 51.70507 | -47.01783 | 34049 ft | 437 kts | 257° |
| 2026-04-16 17:51 | 51.68473 | -47.10994 | 34056 ft | 437 kts | 257° |
| 2026-04-16 17:51 | 51.66425 | -47.20232 | 34016 ft | 438 kts | 256° |
| 2026-04-16 17:52 | 51.64365 | -47.29482 | 34049 ft | 438 kts | 256° |
| 2026-04-16 17:52 | 51.62307 | -47.38680 | 34058 ft | 438 kts | 256° |
| 2026-04-16 17:53 | 51.60243 | -47.47867 | 34067 ft | 439 kts | 256° |
| 2026-04-16 17:53 | 51.58145 | -47.57162 | 34061 ft | 440 kts | 256° |
| 2026-04-16 17:54 | 51.56063 | -47.66343 | 34038 ft | 440 kts | 256° |
| 2026-04-16 17:54 | 51.53959 | -47.75588 | 34064 ft | 440 kts | 256° |
| 2026-04-16 17:55 | 51.51845 | -47.84830 | 34073 ft | 441 kts | 256° |
| 2026-04-16 17:55 | 51.49720 | -47.94083 | 34068 ft | 441 kts | 255° |
| 2026-04-16 17:56 | 51.47603 | -48.03259 | 34069 ft | 440 kts | 255° |
| 2026-04-16 17:56 | 51.44407 | -48.17039 | 34059 ft | 440 kts | 255° |
| 2026-04-16 17:57 | 51.42268 | -48.26216 | 34076 ft | 440 kts | 255° |
| 2026-04-16 17:57 | 51.40107 | -48.35445 | 34070 ft | 440 kts | 255° |
| 2026-04-16 17:58 | 51.37963 | -48.44559 | 34073 ft | 441 kts | 255° |
| 2026-04-16 17:58 | 51.35784 | -48.53784 | 34074 ft | 441 kts | 255° |
| 2026-04-16 17:59 | 51.33609 | -48.62955 | 34042 ft | 441 kts | 254° |
| 2026-04-16 17:59 | 51.31429 | -48.72109 | 34069 ft | 442 kts | 254° |
| 2026-04-16 18:00 | 51.29226 | -48.81321 | 34078 ft | 443 kts | 254° |
| 2026-04-16 18:00 | 51.27031 | -48.90456 | 34076 ft | 444 kts | 254° |
| 2026-04-16 18:01 | 51.24811 | -48.99658 | 34091 ft | 444 kts | 253° |
| 2026-04-16 18:01 | 51.22578 | -49.08875 | 34078 ft | 444 kts | 253° |
| 2026-04-16 18:02 | 51.20347 | -49.18048 | 34080 ft | 443 kts | 253° |
| 2026-04-16 18:02 | 51.18117 | -49.27174 | 34076 ft | 443 kts | 253° |
| 2026-04-16 18:03 | 51.15869 | -49.36340 | 34078 ft | 442 kts | 253° |
| 2026-04-16 18:03 | 51.13638 | -49.45399 | 34079 ft | 442 kts | 253° |
| 2026-04-16 18:04 | 51.11386 | -49.54509 | 34051 ft | 442 kts | 252° |
| 2026-04-16 18:04 | 51.09127 | -49.63606 | 34080 ft | 442 kts | 252° |
| 2026-04-16 18:05 | 51.06863 | -49.72689 | 34087 ft | 444 kts | 252° |
| 2026-04-16 18:05 | 51.04572 | -49.81839 | 34085 ft | 445 kts | 252° |
| 2026-04-16 18:06 | 51.02271 | -49.90996 | 34085 ft | 445 kts | 252° |
| 2026-04-16 18:06 | 50.99967 | -50.00129 | 34062 ft | 446 kts | 252° |
| 2026-04-16 18:07 | 50.97735 | -50.09287 | 34107 ft | 445 kts | 252° |
| 2026-04-16 18:07 | 50.95543 | -50.18482 | 34082 ft | 446 kts | 252° |
| 2026-04-16 18:08 | 50.93350 | -50.27623 | 34083 ft | 445 kts | 252° |
| 2026-04-16 18:08 | 50.91138 | -50.36768 | 34084 ft | 445 kts | 252° |
| 2026-04-16 18:09 | 50.88905 | -50.45943 | 34051 ft | 445 kts | 252° |
| 2026-04-16 18:09 | 50.86683 | -50.55031 | 34076 ft | 445 kts | 252° |
| 2026-04-16 18:10 | 50.84444 | -50.64154 | 34088 ft | 446 kts | 252° |
| 2026-04-16 18:10 | 50.82197 | -50.73269 | 34090 ft | 446 kts | 252° |
| 2026-04-16 18:11 | 50.79934 | -50.82413 | 34089 ft | 447 kts | 251° |
| 2026-04-16 18:11 | 50.77652 | -50.91595 | 34050 ft | 447 kts | 251° |
| 2026-04-16 18:12 | 50.75369 | -51.00746 | 34075 ft | 448 kts | 251° |
| 2026-04-16 18:12 | 50.73091 | -51.09840 | 34089 ft | 448 kts | 251° |
| 2026-04-16 18:13 | 50.70790 | -51.18987 | 34094 ft | 448 kts | 251° |
| 2026-04-16 18:13 | 50.68478 | -51.28135 | 34086 ft | 448 kts | 251° |
| 2026-04-16 18:14 | 50.66160 | -51.37275 | 34059 ft | 447 kts | 251° |
| 2026-04-16 18:14 | 50.63858 | -51.46317 | 34076 ft | 447 kts | 250° |
| 2026-04-16 18:15 | 50.61538 | -51.55391 | 34096 ft | 447 kts | 250° |
| 2026-04-16 18:15 | 50.59195 | -51.64518 | 34097 ft | 448 kts | 250° |
| 2026-04-16 18:16 | 50.56869 | -51.73546 | 34076 ft | 448 kts | 250° |
| 2026-04-16 18:16 | 50.54505 | -51.82682 | 34066 ft | 448 kts | 250° |
| 2026-04-16 18:17 | 50.52154 | -51.91740 | 34084 ft | 449 kts | 250° |
| 2026-04-16 18:17 | 50.49744 | -52.00772 | 34091 ft | 450 kts | 247° |
| 2026-04-16 18:18 | 50.47275 | -52.08006 | 34088 ft | 452 kts | 244° |
| 2026-04-16 18:18 | 50.44245 | -52.16647 | 34085 ft | 452 kts | 244° |
| 2026-04-16 18:19 | 50.41229 | -52.25281 | 34070 ft | 452 kts | 244° |
| 2026-04-16 18:19 | 50.38210 | -52.33924 | 34086 ft | 453 kts | 244° |
| 2026-04-16 18:20 | 50.35191 | -52.42546 | 34090 ft | 453 kts | 244° |
| 2026-04-16 18:20 | 50.32138 | -52.51241 | 34090 ft | 453 kts | 244° |
| 2026-04-16 18:21 | 50.29112 | -52.59824 | 34086 ft | 454 kts | 244° |
| 2026-04-16 18:21 | 50.26056 | -52.68464 | 34075 ft | 454 kts | 244° |
| 2026-04-16 18:22 | 50.22985 | -52.77116 | 34080 ft | 454 kts | 244° |
| 2026-04-16 18:22 | 50.19938 | -52.85674 | 34086 ft | 454 kts | 244° |
| 2026-04-16 18:23 | 50.16862 | -52.94283 | 34085 ft | 454 kts | 244° |
| 2026-04-16 18:23 | 50.13763 | -53.02928 | 34061 ft | 455 kts | 244° |
| 2026-04-16 18:24 | 50.10677 | -53.11506 | 34086 ft | 455 kts | 244° |
| 2026-04-16 18:24 | 50.07581 | -53.20084 | 34087 ft | 455 kts | 244° |
| 2026-04-16 18:25 | 50.04476 | -53.28661 | 34080 ft | 455 kts | 243° |
| 2026-04-16 18:25 | 50.01366 | -53.37220 | 34077 ft | 456 kts | 243° |
| 2026-04-16 18:26 | 49.98237 | -53.45802 | 34096 ft | 456 kts | 243° |
| 2026-04-16 18:26 | 49.95089 | -53.54410 | 34085 ft | 456 kts | 243° |
| 2026-04-16 18:27 | 49.91956 | -53.62948 | 34078 ft | 456 kts | 243° |
| 2026-04-16 18:27 | 49.88803 | -53.71511 | 34076 ft | 456 kts | 243° |
| 2026-04-16 18:28 | 49.85669 | -53.79995 | 34065 ft | 456 kts | 244° |
| 2026-04-16 18:28 | 49.82505 | -53.88532 | 34073 ft | 456 kts | 244° |
| 2026-04-16 18:29 | 49.79332 | -53.97068 | 34071 ft | 456 kts | 244° |
| 2026-04-16 18:29 | 49.76169 | -54.05547 | 34074 ft | 457 kts | 243° |
| 2026-04-16 18:30 | 49.73001 | -54.14012 | 34064 ft | 457 kts | 243° |
| 2026-04-16 18:30 | 49.69796 | -54.22544 | 34059 ft | 457 kts | 244° |
| 2026-04-16 18:31 | 49.66618 | -54.30983 | 34065 ft | 457 kts | 244° |
| 2026-04-16 18:31 | 49.63415 | -54.39460 | 34061 ft | 457 kts | 244° |
| 2026-04-16 18:32 | 49.60212 | -54.47907 | 34065 ft | 457 kts | 244° |
| 2026-04-16 18:32 | 49.56999 | -54.56349 | 34051 ft | 456 kts | 244° |
| 2026-04-16 18:33 | 49.53783 | -54.64776 | 34061 ft | 456 kts | 244° |
| 2026-04-16 18:33 | 49.50568 | -54.73176 | 34055 ft | 455 kts | 245° |
| 2026-04-16 18:34 | 49.47367 | -54.81513 | 34061 ft | 455 kts | 244° |
| 2026-04-16 18:34 | 49.44125 | -54.89926 | 34029 ft | 455 kts | 245° |
| 2026-04-16 18:35 | 49.40910 | -54.98243 | 34058 ft | 454 kts | 245° |
| 2026-04-16 18:35 | 49.37672 | -55.06594 | 34059 ft | 454 kts | 245° |
| 2026-04-16 18:36 | 49.34440 | -55.14904 | 34064 ft | 453 kts | 245° |
| 2026-04-16 18:36 | 49.31208 | -55.23186 | 34061 ft | 453 kts | 245° |
| 2026-04-16 18:37 | 49.27966 | -55.31465 | 34053 ft | 452 kts | 245° |
| 2026-04-16 18:37 | 49.24739 | -55.39684 | 34066 ft | 452 kts | 245° |
| 2026-04-16 18:38 | 49.21491 | -55.47934 | 34069 ft | 451 kts | 245° |
| 2026-04-16 18:38 | 49.18255 | -55.56123 | 34074 ft | 451 kts | 245° |
| 2026-04-16 18:39 | 49.15025 | -55.64270 | 34048 ft | 450 kts | 245° |
| 2026-04-16 18:39 | 49.11765 | -55.72471 | 34070 ft | 449 kts | 245° |
| 2026-04-16 18:40 | 49.08539 | -55.80562 | 34079 ft | 448 kts | 245° |
| 2026-04-16 18:40 | 49.05302 | -55.88655 | 34085 ft | 448 kts | 245° |
| 2026-04-16 18:41 | 49.02058 | -55.96740 | 34077 ft | 447 kts | 245° |
| 2026-04-16 18:41 | 48.98814 | -56.04795 | 34080 ft | 444 kts | 246° |
| 2026-04-16 18:42 | 48.95603 | -56.12747 | 34078 ft | 441 kts | 246° |
| 2026-04-16 18:42 | 48.92395 | -56.20670 | 34074 ft | 439 kts | 246° |
| 2026-04-16 18:43 | 48.89186 | -56.28576 | 34075 ft | 438 kts | 246° |
| 2026-04-16 18:43 | 48.85977 | -56.36457 | 34064 ft | 437 kts | 246° |
| 2026-04-16 18:44 | 48.82781 | -56.44281 | 34072 ft | 436 kts | 246° |
| 2026-04-16 18:44 | 48.79587 | -56.52080 | 34065 ft | 436 kts | 246° |
| 2026-04-16 18:45 | 48.76394 | -56.59852 | 34064 ft | 435 kts | 246° |
| 2026-04-16 18:45 | 48.73195 | -56.67614 | 34066 ft | 435 kts | 246° |
| 2026-04-16 18:46 | 48.69987 | -56.75375 | 34052 ft | 433 kts | 246° |
| 2026-04-16 18:46 | 48.66801 | -56.83062 | 34059 ft | 433 kts | 246° |
| 2026-04-16 18:47 | 48.63589 | -56.90792 | 34078 ft | 432 kts | 246° |
| 2026-04-16 18:47 | 48.60394 | -56.98458 | 34063 ft | 432 kts | 246° |
| 2026-04-16 18:48 | 48.57185 | -57.06136 | 34091 ft | 432 kts | 246° |
| 2026-04-16 18:48 | 48.53981 | -57.13775 | 34080 ft | 431 kts | 246° |
| 2026-04-16 18:49 | 48.50783 | -57.21381 | 34099 ft | 430 kts | 246° |
| 2026-04-16 18:49 | 48.47557 | -57.29038 | 34082 ft | 429 kts | 246° |
| 2026-04-16 18:50 | 48.44365 | -57.36581 | 34084 ft | 429 kts | 246° |
| 2026-04-16 18:50 | 48.41152 | -57.44155 | 34085 ft | 427 kts | 247° |
| 2026-04-16 18:51 | 48.37969 | -57.51642 | 34094 ft | 426 kts | 247° |
| 2026-04-16 18:51 | 48.34767 | -57.59160 | 34094 ft | 427 kts | 247° |
| 2026-04-16 18:52 | 48.31558 | -57.66666 | 34098 ft | 426 kts | 247° |
| 2026-04-16 18:52 | 48.28358 | -57.74121 | 34076 ft | 425 kts | 247° |
| 2026-04-16 18:53 | 48.25156 | -57.81567 | 34096 ft | 423 kts | 248° |
| 2026-04-16 18:53 | 48.21963 | -57.88977 | 34098 ft | 422 kts | 248° |
| 2026-04-16 18:54 | 48.18794 | -57.96308 | 34103 ft | 421 kts | 247° |
| 2026-04-16 18:54 | 48.15591 | -58.03699 | 34094 ft | 421 kts | 247° |
| 2026-04-16 18:55 | 48.12404 | -58.11033 | 34476 ft | 420 kts | 247° |
| 2026-04-16 18:55 | 48.10817 | -58.14676 | 34691 ft | 421 kts | 247° |
| 2026-04-16 18:55 | 48.09220 | -58.18341 | 34893 ft | 422 kts | 247° |
| 2026-04-16 18:56 | 48.07614 | -58.22021 | 35070 ft | 422 kts | 247° |
| 2026-04-16 18:56 | 48.05988 | -58.25739 | 35278 ft | 423 kts | 247° |
| 2026-04-16 18:56 | 48.04379 | -58.29413 | 35452 ft | 423 kts | 247° |
| 2026-04-16 18:56 | 48.02784 | -58.33052 | 35655 ft | 424 kts | 246° |
| 2026-04-16 18:57 | 48.01155 | -58.36763 | 35902 ft | 423 kts | 246° |
| 2026-04-16 18:57 | 47.99545 | -58.40424 | 35955 ft | 424 kts | 246° |
| 2026-04-16 18:58 | 47.94704 | -58.51400 | 36084 ft | 421 kts | 246° |
| 2026-04-16 18:58 | 47.91466 | -58.58715 | 36097 ft | 419 kts | 246° |
| 2026-04-16 18:59 | 47.88266 | -58.65932 | 36094 ft | 418 kts | 246° |
| 2026-04-16 18:59 | 47.85066 | -58.73130 | 36050 ft | 419 kts | 245° |
| 2026-04-16 19:00 | 47.81838 | -58.80374 | 36090 ft | 419 kts | 245° |
| 2026-04-16 19:00 | 47.78613 | -58.87591 | 36098 ft | 421 kts | 245° |
| 2026-04-16 19:01 | 47.75344 | -58.94889 | 36089 ft | 423 kts | 245° |
| 2026-04-16 19:01 | 47.72083 | -59.02145 | 36098 ft | 425 kts | 245° |
| 2026-04-16 19:02 | 47.68795 | -59.09438 | 36087 ft | 426 kts | 245° |
| 2026-04-16 19:02 | 47.65476 | -59.16783 | 36088 ft | 427 kts | 245° |
| 2026-04-16 19:03 | 47.62159 | -59.24105 | 36085 ft | 429 kts | 245° |
| 2026-04-16 19:03 | 47.58820 | -59.31455 | 36082 ft | 429 kts | 245° |
| 2026-04-16 19:04 | 47.55503 | -59.38732 | 36049 ft | 429 kts | 245° |
| 2026-04-16 19:04 | 47.52158 | -59.46056 | 36074 ft | 429 kts | 245° |
| 2026-04-16 19:05 | 47.48824 | -59.53340 | 36087 ft | 430 kts | 245° |
| 2026-04-16 19:05 | 47.45461 | -59.60666 | 36089 ft | 430 kts | 245° |
| 2026-04-16 19:06 | 47.42092 | -59.67984 | 36076 ft | 431 kts | 245° |
| 2026-04-16 19:06 | 47.38726 | -59.75275 | 36065 ft | 431 kts | 245° |
| 2026-04-16 19:07 | 47.35324 | -59.82627 | 36072 ft | 433 kts | 245° |
| 2026-04-16 19:07 | 47.31919 | -59.89965 | 36068 ft | 434 kts | 245° |
| 2026-04-16 19:08 | 47.28506 | -59.97301 | 36069 ft | 435 kts | 245° |
| 2026-04-16 19:08 | 47.25091 | -60.04619 | 36053 ft | 435 kts | 245° |
| 2026-04-16 19:09 | 47.21660 | -60.11954 | 36055 ft | 436 kts | 244° |
| 2026-04-16 19:09 | 47.18210 | -60.19309 | 36061 ft | 437 kts | 244° |
| 2026-04-16 19:10 | 47.15316 | -60.25465 | 36055 ft | 438 kts | 244° |
| 2026-04-16 19:10 | 47.11848 | -60.32821 | 36056 ft | 438 kts | 244° |
| 2026-04-16 19:11 | 47.08384 | -60.40151 | 36052 ft | 438 kts | 244° |
| 2026-04-16 19:11 | 47.04925 | -60.47451 | 36051 ft | 438 kts | 244° |
| 2026-04-16 19:12 | 47.01443 | -60.54779 | 36037 ft | 438 kts | 244° |
| 2026-04-16 19:12 | 46.97939 | -60.62134 | 36042 ft | 437 kts | 244° |
| 2026-04-16 19:13 | 46.94458 | -60.69427 | 36026 ft | 439 kts | 244° |
| 2026-04-16 19:13 | 46.90953 | -60.76747 | 36038 ft | 439 kts | 244° |
| 2026-04-16 19:14 | 46.87434 | -60.84076 | 36038 ft | 440 kts | 244° |
| 2026-04-16 19:14 | 46.83915 | -60.91385 | 36014 ft | 441 kts | 244° |
| 2026-04-16 19:15 | 46.80389 | -60.98689 | 36006 ft | 441 kts | 244° |
| 2026-04-16 19:15 | 46.76844 | -61.06017 | 36018 ft | 443 kts | 244° |
| 2026-04-16 19:16 | 46.73278 | -61.13366 | 36000 ft | 444 kts | 244° |
| 2026-04-16 19:16 | 46.69712 | -61.20695 | 35999 ft | 445 kts | 244° |
| 2026-04-16 19:17 | 46.66136 | -61.28026 | 35996 ft | 445 kts | 244° |
| 2026-04-16 19:17 | 46.62523 | -61.35411 | 36008 ft | 446 kts | 244° |
| 2026-04-16 19:18 | 46.58938 | -61.42724 | 36010 ft | 446 kts | 244° |
| 2026-04-16 19:18 | 46.55339 | -61.50043 | 36016 ft | 446 kts | 244° |
| 2026-04-16 19:19 | 46.51704 | -61.57416 | 35987 ft | 446 kts | 244° |
| 2026-04-16 19:19 | 46.48089 | -61.64728 | 36011 ft | 446 kts | 244° |
| 2026-04-16 19:20 | 46.44499 | -61.71973 | 36022 ft | 446 kts | 244° |
| 2026-04-16 19:20 | 46.40853 | -61.79314 | 36023 ft | 446 kts | 244° |
| 2026-04-16 19:21 | 46.37231 | -61.86587 | 36007 ft | 446 kts | 243° |
| 2026-04-16 19:21 | 46.33608 | -61.93841 | 36014 ft | 447 kts | 243° |
| 2026-04-16 19:22 | 46.29938 | -62.01170 | 36013 ft | 448 kts | 243° |
| 2026-04-16 19:22 | 46.26302 | -62.08413 | 36008 ft | 448 kts | 243° |
| 2026-04-16 19:23 | 46.22631 | -62.15706 | 35979 ft | 448 kts | 242° |
| 2026-04-16 19:23 | 46.18954 | -62.22992 | 35992 ft | 449 kts | 242° |
| 2026-04-16 19:24 | 46.15254 | -62.30307 | 36015 ft | 450 kts | 241° |
| 2026-04-16 19:24 | 46.11558 | -62.37591 | 35998 ft | 450 kts | 241° |
| 2026-04-16 19:25 | 46.07873 | -62.44835 | 35973 ft | 449 kts | 241° |
| 2026-04-16 19:25 | 46.04168 | -62.52100 | 35994 ft | 449 kts | 241° |
| 2026-04-16 19:26 | 46.00468 | -62.59338 | 35999 ft | 449 kts | 240° |
| 2026-04-16 19:26 | 45.96766 | -62.66562 | 35995 ft | 450 kts | 240° |
| 2026-04-16 19:27 | 45.93061 | -62.73771 | 35977 ft | 450 kts | 240° |
| 2026-04-16 19:27 | 45.89350 | -62.80972 | 35983 ft | 449 kts | 240° |
| 2026-04-16 19:28 | 45.85632 | -62.88172 | 35979 ft | 449 kts | 240° |
| 2026-04-16 19:28 | 45.81893 | -62.95394 | 35980 ft | 449 kts | 240° |
| 2026-04-16 19:29 | 45.78194 | -63.02519 | 35954 ft | 449 kts | 240° |
| 2026-04-16 19:29 | 45.74441 | -63.09731 | 35970 ft | 449 kts | 240° |
| 2026-04-16 19:30 | 45.70709 | -63.16882 | 35975 ft | 449 kts | 240° |
| 2026-04-16 19:30 | 45.66973 | -63.24025 | 35992 ft | 449 kts | 240° |
| 2026-04-16 19:31 | 45.63235 | -63.31153 | 35979 ft | 449 kts | 240° |
| 2026-04-16 19:31 | 45.59508 | -63.38240 | 35973 ft | 448 kts | 240° |
| 2026-04-16 19:32 | 45.55764 | -63.45344 | 35976 ft | 447 kts | 240° |
| 2026-04-16 19:32 | 45.52014 | -63.52441 | 35980 ft | 447 kts | 240° |
| 2026-04-16 19:33 | 45.48262 | -63.59525 | 35962 ft | 446 kts | 240° |
| 2026-04-16 19:33 | 45.44530 | -63.66553 | 35986 ft | 447 kts | 240° |
| 2026-04-16 19:34 | 45.40769 | -63.73620 | 35981 ft | 448 kts | 239° |
| 2026-04-16 19:34 | 45.36986 | -63.80710 | 35989 ft | 448 kts | 239° |
| 2026-04-16 19:35 | 45.33208 | -63.87771 | 35969 ft | 448 kts | 239° |
| 2026-04-16 19:35 | 45.29442 | -63.94792 | 35980 ft | 449 kts | 239° |
| 2026-04-16 19:36 | 45.25648 | -64.01847 | 35987 ft | 449 kts | 239° |
| 2026-04-16 19:36 | 45.21848 | -64.08899 | 35986 ft | 450 kts | 239° |
| 2026-04-16 19:37 | 45.18046 | -64.15934 | 35977 ft | 450 kts | 238° |
| 2026-04-16 19:37 | 45.14247 | -64.22947 | 35981 ft | 450 kts | 238° |
| 2026-04-16 19:38 | 45.10435 | -64.29967 | 35986 ft | 449 kts | 238° |
| 2026-04-16 19:38 | 45.06623 | -64.36969 | 35983 ft | 449 kts | 238° |
| 2026-04-16 19:39 | 45.02809 | -64.43960 | 35976 ft | 449 kts | 238° |
| 2026-04-16 19:39 | 44.98983 | -64.50955 | 35978 ft | 449 kts | 238° |
| 2026-04-16 19:40 | 44.95168 | -64.57912 | 35972 ft | 449 kts | 238° |
| 2026-04-16 19:40 | 44.91328 | -64.64896 | 35972 ft | 450 kts | 238° |
| 2026-04-16 19:41 | 44.87492 | -64.71860 | 35963 ft | 450 kts | 237° |
| 2026-04-16 19:41 | 44.83646 | -64.78820 | 35967 ft | 450 kts | 237° |
| 2026-04-16 19:42 | 44.79793 | -64.85779 | 35967 ft | 451 kts | 237° |
| 2026-04-16 19:42 | 44.75957 | -64.92690 | 35945 ft | 451 kts | 237° |
| 2026-04-16 19:43 | 44.72085 | -64.99648 | 35967 ft | 451 kts | 237° |
| 2026-04-16 19:43 | 44.68213 | -65.06590 | 35981 ft | 451 kts | 237° |
| 2026-04-16 19:44 | 44.64348 | -65.13504 | 35980 ft | 451 kts | 237° |
| 2026-04-16 19:44 | 44.60450 | -65.20457 | 35953 ft | 451 kts | 236° |
| 2026-04-16 19:45 | 44.56594 | -65.27320 | 35977 ft | 451 kts | 236° |
| 2026-04-16 19:45 | 44.52707 | -65.34223 | 35981 ft | 452 kts | 236° |
| 2026-04-16 19:46 | 44.48807 | -65.41131 | 35977 ft | 452 kts | 236° |
| 2026-04-16 19:46 | 44.44898 | -65.48038 | 35968 ft | 452 kts | 236° |
| 2026-04-16 19:47 | 44.40975 | -65.54954 | 35974 ft | 453 kts | 236° |
| 2026-04-16 19:47 | 44.37069 | -65.61824 | 35980 ft | 453 kts | 236° |
| 2026-04-16 19:48 | 44.33126 | -65.68742 | 35979 ft | 454 kts | 236° |
| 2026-04-16 19:48 | 44.29202 | -65.75610 | 35968 ft | 454 kts | 236° |
| 2026-04-16 19:49 | 44.25251 | -65.82508 | 35975 ft | 454 kts | 236° |
| 2026-04-16 19:49 | 44.21317 | -65.89360 | 35976 ft | 454 kts | 235° |
| 2026-04-16 19:50 | 44.17376 | -65.96209 | 35971 ft | 454 kts | 235° |
| 2026-04-16 19:50 | 44.13408 | -66.03088 | 35973 ft | 454 kts | 235° |
| 2026-04-16 19:51 | 44.09449 | -66.09935 | 35966 ft | 454 kts | 235° |
| 2026-04-16 19:51 | 44.05494 | -66.16759 | 35967 ft | 454 kts | 235° |
| 2026-04-16 19:52 | 44.01529 | -66.23583 | 35956 ft | 453 kts | 235° |
| 2026-04-16 19:52 | 43.97572 | -66.30380 | 35966 ft | 453 kts | 235° |
| 2026-04-16 19:53 | 43.93601 | -66.37184 | 35957 ft | 454 kts | 235° |
| 2026-04-16 19:53 | 43.89627 | -66.43976 | 35953 ft | 454 kts | 235° |
| 2026-04-16 19:54 | 43.85656 | -66.50749 | 35947 ft | 454 kts | 235° |
| 2026-04-16 19:54 | 43.81653 | -66.57560 | 35951 ft | 455 kts | 235° |
| 2026-04-16 19:55 | 43.77658 | -66.64341 | 35944 ft | 456 kts | 235° |
| 2026-04-16 19:55 | 43.73636 | -66.71152 | 35933 ft | 457 kts | 235° |
| 2026-04-16 19:56 | 43.69613 | -66.77948 | 35922 ft | 457 kts | 235° |
| 2026-04-16 19:56 | 43.66247 | -66.83624 | 35922 ft | 458 kts | 234° |
| 2026-04-16 19:57 | 43.61544 | -66.91538 | 35915 ft | 458 kts | 234° |
| 2026-04-16 19:57 | 43.57512 | -66.98336 | 35907 ft | 458 kts | 236° |
| 2026-04-16 19:58 | 43.54584 | -67.04384 | 35902 ft | 454 kts | 244° |
| 2026-04-16 19:58 | 43.51459 | -67.11953 | 35910 ft | 455 kts | 244° |
| 2026-04-16 19:59 | 43.48305 | -67.19496 | 35904 ft | 456 kts | 243° |
| 2026-04-16 19:59 | 43.45117 | -67.27060 | 35901 ft | 456 kts | 243° |